Terminal Aerodrome Forecast
Issued by NWS

Home | Current Version | Previous Version | Text Only | Print | Product List | Glossary On
Versions: 1 2 3 4 5 6 7 8 9 10 11 12 13 14 15 16 17 18 19 20 21 22
000
FTUS45 KRIW 181000 AAB
TAFLND
TAF AMD
KLND 181021Z 1810/1906 VRB03KT 1/2SM FZFG VV002
     FM181300 VRB03KT 3SM BR BKN004
      TEMPO 1813/1814 1SM BR
     FM181600 VRB03KT P6SM SKC
     FM182300 VRB04KT P6SM SCT100 BKN250=

USA.gov is the U.S. government's official web portal to all federal, state and local government web resources and services.